sensor_id;sensor_type;location;lat;lon;timestamp;temperature;humidity
324;DHT22;149;51.094;17.002;2023-07-31T00:00:16;16.60;94.50
324;DHT22;149;51.094;17.002;2023-07-31T00:02:43;16.80;94.60
324;DHT22;149;51.094;17.002;2023-07-31T00:05:11;16.80;94.80
324;DHT22;149;51.094;17.002;2023-07-31T00:07:37;16.80;94.30
324;DHT22;149;51.094;17.002;2023-07-31T00:10:05;16.80;94.20
324;DHT22;149;51.094;17.002;2023-07-31T00:12:32;16.70;94.30
324;DHT22;149;51.094;17.002;2023-07-31T00:14:59;16.70;94.40
324;DHT22;149;51.094;17.002;2023-07-31T00:17:27;16.80;94.70
324;DHT22;149;51.094;17.002;2023-07-31T00:19:54;16.70;94.30
324;DHT22;149;51.094;17.002;2023-07-31T00:22:21;16.70;94.50
324;DHT22;149;51.094;17.002;2023-07-31T00:24:48;16.70;94.50
324;DHT22;149;51.094;17.002;2023-07-31T00:27:15;16.70;94.50
324;DHT22;149;51.094;17.002;2023-07-31T00:29:42;16.70;94.10
324;DHT22;149;51.094;17.002;2023-07-31T00:32:09;16.70;94.10
324;DHT22;149;51.094;17.002;2023-07-31T00:34:37;16.80;94.00
324;DHT22;149;51.094;17.002;2023-07-31T00:37:04;16.80;94.00
324;DHT22;149;51.094;17.002;2023-07-31T00:39:33;16.70;94.00
324;DHT22;149;51.094;17.002;2023-07-31T00:42:00;16.70;93.50
324;DHT22;149;51.094;17.002;2023-07-31T00:44:27;16.70;93.80
324;DHT22;149;51.094;17.002;2023-07-31T00:46:56;16.70;93.80
324;DHT22;149;51.094;17.002;2023-07-31T00:49:23;16.70;93.30
324;DHT22;149;51.094;17.002;2023-07-31T00:51:50;16.60;93.10
324;DHT22;149;51.094;17.002;2023-07-31T00:54:17;16.60;93.40
324;DHT22;149;51.094;17.002;2023-07-31T00:56:45;16.60;93.30
324;DHT22;149;51.094;17.002;2023-07-31T00:59:12;16.70;93.20
324;DHT22;149;51.094;17.002;2023-07-31T01:01:40;16.50;93.10
324;DHT22;149;51.094;17.002;2023-07-31T01:04:07;16.60;92.70
324;DHT22;149;51.094;17.002;2023-07-31T01:09:33;16.60;92.80
324;DHT22;149;51.094;17.002;2023-07-31T01:12:03;16.50;92.60
324;DHT22;149;51.094;17.002;2023-07-31T01:14:31;16.60;92.80
324;DHT22;149;51.094;17.002;2023-07-31T01:16:57;16.40;92.50
324;DHT22;149;51.094;17.002;2023-07-31T01:19:26;16.60;92.40
324;DHT22;149;51.094;17.002;2023-07-31T01:22:15;16.60;92.50
324;DHT22;149;51.094;17.002;2023-07-31T01:24:59;16.50;93.10
324;DHT22;149;51.094;17.002;2023-07-31T01:27:31;16.50;92.90
324;DHT22;149;51.094;17.002;2023-07-31T01:30:07;16.50;92.90
324;DHT22;149;51.094;17.002;2023-07-31T01:32:40;16.50;92.70
324;DHT22;149;51.094;17.002;2023-07-31T01:35:08;16.50;92.70
324;DHT22;149;51.094;17.002;2023-07-31T01:37:36;16.50;92.60
324;DHT22;149;51.094;17.002;2023-07-31T01:40:05;16.60;92.10
324;DHT22;149;51.094;17.002;2023-07-31T01:42:33;16.60;92.00
324;DHT22;149;51.094;17.002;2023-07-31T01:45:00;16.60;92.00
324;DHT22;149;51.094;17.002;2023-07-31T01:47:30;16.50;92.20
324;DHT22;149;51.094;17.002;2023-07-31T01:49:57;16.60;92.20
324;DHT22;149;51.094;17.002;2023-07-31T01:52:24;16.70;92.00
324;DHT22;149;51.094;17.002;2023-07-31T01:54:51;16.60;92.20
324;DHT22;149;51.094;17.002;2023-07-31T01:57:18;16.60;92.10
324;DHT22;149;51.094;17.002;2023-07-31T01:59:47;16.50;92.20
324;DHT22;149;51.094;17.002;2023-07-31T02:02:13;16.50;92.30
324;DHT22;149;51.094;17.002;2023-07-31T02:04:40;16.50;92.20
324;DHT22;149;51.094;17.002;2023-07-31T02:07:07;16.50;92.70
324;DHT22;149;51.094;17.002;2023-07-31T02:09:35;16.40;92.70
324;DHT22;149;51.094;17.002;2023-07-31T02:12:03;16.40;92.50
324;DHT22;149;51.094;17.002;2023-07-31T02:14:30;16.40;92.80
324;DHT22;149;51.094;17.002;2023-07-31T02:16:57;16.40;92.80
324;DHT22;149;51.094;17.002;2023-07-31T02:19:24;16.30;93.00
324;DHT22;149;51.094;17.002;2023-07-31T02:21:51;16.40;93.10
324;DHT22;149;51.094;17.002;2023-07-31T02:24:18;16.40;92.70
324;DHT22;149;51.094;17.002;2023-07-31T02:26:45;16.40;92.70
324;DHT22;149;51.094;17.002;2023-07-31T02:29:12;16.40;92.90
324;DHT22;149;51.094;17.002;2023-07-31T02:31:39;16.40;92.70
324;DHT22;149;51.094;17.002;2023-07-31T02:34:06;16.40;92.60
324;DHT22;149;51.094;17.002;2023-07-31T02:36:33;16.50;92.60
324;DHT22;149;51.094;17.002;2023-07-31T02:39:00;16.40;92.60
324;DHT22;149;51.094;17.002;2023-07-31T02:41:27;16.40;92.40
324;DHT22;149;51.094;17.002;2023-07-31T02:43:54;16.30;92.20
324;DHT22;149;51.094;17.002;2023-07-31T02:46:21;16.40;92.40
324;DHT22;149;51.094;17.002;2023-07-31T02:48:51;16.40;92.10
324;DHT22;149;51.094;17.002;2023-07-31T02:51:18;16.40;91.90
324;DHT22;149;51.094;17.002;2023-07-31T02:53:47;16.30;92.10
324;DHT22;149;51.094;17.002;2023-07-31T02:56:14;16.20;92.60
324;DHT22;149;51.094;17.002;2023-07-31T02:58:42;16.10;92.70
324;DHT22;149;51.094;17.002;2023-07-31T03:01:08;16.00;92.60
324;DHT22;149;51.094;17.002;2023-07-31T03:03:36;16.00;92.70
324;DHT22;149;51.094;17.002;2023-07-31T03:06:03;16.00;92.60
324;DHT22;149;51.094;17.002;2023-07-31T03:08:31;16.00;92.60
324;DHT22;149;51.094;17.002;2023-07-31T03:10:59;16.00;92.10
324;DHT22;149;51.094;17.002;2023-07-31T03:13:25;16.00;92.10
324;DHT22;149;51.094;17.002;2023-07-31T03:15:53;16.00;92.10
324;DHT22;149;51.094;17.002;2023-07-31T03:18:20;15.90;92.20
324;DHT22;149;51.094;17.002;2023-07-31T03:20:47;15.80;92.40
324;DHT22;149;51.094;17.002;2023-07-31T03:23:14;15.80;92.20
324;DHT22;149;51.094;17.002;2023-07-31T03:25:55;15.80;92.40
324;DHT22;149;51.094;17.002;2023-07-31T03:28:23;15.60;92.00
324;DHT22;149;51.094;17.002;2023-07-31T03:30:51;15.70;92.50
324;DHT22;149;51.094;17.002;2023-07-31T03:33:19;15.70;92.70
324;DHT22;149;51.094;17.002;2023-07-31T03:35:46;15.60;92.60
324;DHT22;149;51.094;17.002;2023-07-31T03:38:13;15.60;93.00
324;DHT22;149;51.094;17.002;2023-07-31T03:40:40;15.60;92.90
324;DHT22;149;51.094;17.002;2023-07-31T03:43:07;15.60;92.90
324;DHT22;149;51.094;17.002;2023-07-31T03:45:35;15.60;92.90
324;DHT22;149;51.094;17.002;2023-07-31T03:48:03;15.60;93.10
324;DHT22;149;51.094;17.002;2023-07-31T03:50:32;15.60;92.70
324;DHT22;149;51.094;17.002;2023-07-31T03:52:58;15.60;92.90
324;DHT22;149;51.094;17.002;2023-07-31T03:55:26;15.70;92.40
324;DHT22;149;51.094;17.002;2023-07-31T03:57:53;15.60;92.20
324;DHT22;149;51.094;17.002;2023-07-31T04:00:20;15.50;92.50
324;DHT22;149;51.094;17.002;2023-07-31T04:02:48;15.60;92.70
324;DHT22;149;51.094;17.002;2023-07-31T04:05:15;15.60;92.50
324;DHT22;149;51.094;17.002;2023-07-31T04:07:42;15.70;92.40
324;DHT22;149;51.094;17.002;2023-07-31T04:10:11;15.70;92.20
324;DHT22;149;51.094;17.002;2023-07-31T04:12:39;15.70;92.20
324;DHT22;149;51.094;17.002;2023-07-31T04:15:06;15.70;92.00
324;DHT22;149;51.094;17.002;2023-07-31T04:17:34;15.80;92.10
324;DHT22;149;51.094;17.002;2023-07-31T04:20:01;15.80;92.10
324;DHT22;149;51.094;17.002;2023-07-31T04:22:28;15.90;92.20
324;DHT22;149;51.094;17.002;2023-07-31T04:24:55;15.90;92.00
324;DHT22;149;51.094;17.002;2023-07-31T04:27:22;15.90;91.80
324;DHT22;149;51.094;17.002;2023-07-31T04:29:50;16.10;91.90
324;DHT22;149;51.094;17.002;2023-07-31T04:32:17;16.10;91.50
324;DHT22;149;51.094;17.002;2023-07-31T04:34:44;16.30;91.70
324;DHT22;149;51.094;17.002;2023-07-31T04:37:11;16.30;91.00
324;DHT22;149;51.094;17.002;2023-07-31T04:39:39;16.60;90.60
324;DHT22;149;51.094;17.002;2023-07-31T04:42:09;16.70;90.00
324;DHT22;149;51.094;17.002;2023-07-31T04:44:36;16.80;90.00
324;DHT22;149;51.094;17.002;2023-07-31T04:47:03;17.00;88.60
324;DHT22;149;51.094;17.002;2023-07-31T04:49:32;17.10;88.80
324;DHT22;149;51.094;17.002;2023-07-31T04:51:59;17.20;88.80
324;DHT22;149;51.094;17.002;2023-07-31T04:54:26;17.30;87.30
324;DHT22;149;51.094;17.002;2023-07-31T04:56:53;17.40;86.80
324;DHT22;149;51.094;17.002;2023-07-31T04:59:20;17.50;86.60
324;DHT22;149;51.094;17.002;2023-07-31T05:01:47;17.60;86.10
324;DHT22;149;51.094;17.002;2023-07-31T05:04:15;17.70;86.00
324;DHT22;149;51.094;17.002;2023-07-31T05:06:42;17.80;85.50
324;DHT22;149;51.094;17.002;2023-07-31T05:09:09;17.90;85.70
324;DHT22;149;51.094;17.002;2023-07-31T05:11:36;18.00;84.40
324;DHT22;149;51.094;17.002;2023-07-31T05:14:04;18.10;84.00
324;DHT22;149;51.094;17.002;2023-07-31T05:16:32;18.40;83.50
324;DHT22;149;51.094;17.002;2023-07-31T05:19:00;18.40;83.20
324;DHT22;149;51.094;17.002;2023-07-31T05:21:29;18.60;83.20
324;DHT22;149;51.094;17.002;2023-07-31T05:23:58;18.60;81.90
324;DHT22;149;51.094;17.002;2023-07-31T05:26:25;18.60;81.60
324;DHT22;149;51.094;17.002;2023-07-31T05:28:52;18.60;81.40
324;DHT22;149;51.094;17.002;2023-07-31T05:31:19;18.80;80.10
324;DHT22;149;51.094;17.002;2023-07-31T05:33:47;18.70;81.60
324;DHT22;149;51.094;17.002;2023-07-31T05:36:14;18.80;80.80
324;DHT22;149;51.094;17.002;2023-07-31T05:38:41;18.80;80.80
324;DHT22;149;51.094;17.002;2023-07-31T05:41:12;18.90;80.30
324;DHT22;149;51.094;17.002;2023-07-31T05:43:39;18.90;79.50
324;DHT22;149;51.094;17.002;2023-07-31T05:46:06;19.00;79.40
324;DHT22;149;51.094;17.002;2023-07-31T05:48:33;19.20;79.20
324;DHT22;149;51.094;17.002;2023-07-31T05:51:01;19.30;78.40
324;DHT22;149;51.094;17.002;2023-07-31T05:53:28;19.50;76.20
324;DHT22;149;51.094;17.002;2023-07-31T05:55:56;19.80;76.40
324;DHT22;149;51.094;17.002;2023-07-31T05:58:23;19.80;75.90
324;DHT22;149;51.094;17.002;2023-07-31T06:00:50;20.00;76.20
324;DHT22;149;51.094;17.002;2023-07-31T06:03:18;20.20;73.70
324;DHT22;149;51.094;17.002;2023-07-31T06:05:45;20.00;73.70
324;DHT22;149;51.094;17.002;2023-07-31T06:08:12;20.00;74.00
324;DHT22;149;51.094;17.002;2023-07-31T06:10:39;20.20;72.50
324;DHT22;149;51.094;17.002;2023-07-31T06:13:06;20.30;72.50
324;DHT22;149;51.094;17.002;2023-07-31T06:15:33;20.20;72.40
324;DHT22;149;51.094;17.002;2023-07-31T06:18:02;20.20;72.90
324;DHT22;149;51.094;17.002;2023-07-31T06:20:31;20.20;73.70
324;DHT22;149;51.094;17.002;2023-07-31T06:22:58;20.20;72.90
324;DHT22;149;51.094;17.002;2023-07-31T06:25:25;20.20;74.50
324;DHT22;149;51.094;17.002;2023-07-31T06:27:52;20.40;72.20
324;DHT22;149;51.094;17.002;2023-07-31T06:30:19;20.40;72.90
324;DHT22;149;51.094;17.002;2023-07-31T06:32:46;20.60;72.00
324;DHT22;149;51.094;17.002;2023-07-31T06:35:13;20.50;71.20
324;DHT22;149;51.094;17.002;2023-07-31T06:37:39;20.30;73.00
324;DHT22;149;51.094;17.002;2023-07-31T06:40:09;20.40;74.30
324;DHT22;149;51.094;17.002;2023-07-31T06:42:36;20.60;73.60
324;DHT22;149;51.094;17.002;2023-07-31T06:45:03;20.80;72.80
324;DHT22;149;51.094;17.002;2023-07-31T06:47:30;21.30;71.60
324;DHT22;149;51.094;17.002;2023-07-31T06:49:58;21.50;71.50
324;DHT22;149;51.094;17.002;2023-07-31T06:52:26;21.70;70.50
324;DHT22;149;51.094;17.002;2023-07-31T06:55:16;21.80;70.40
324;DHT22;149;51.094;17.002;2023-07-31T06:57:49;21.80;70.40
324;DHT22;149;51.094;17.002;2023-07-31T07:00:17;21.50;70.10
324;DHT22;149;51.094;17.002;2023-07-31T07:02:44;21.30;71.30
324;DHT22;149;51.094;17.002;2023-07-31T07:05:11;21.40;70.40
324;DHT22;149;51.094;17.002;2023-07-31T07:07:38;21.50;71.00
324;DHT22;149;51.094;17.002;2023-07-31T07:10:06;21.10;72.40
324;DHT22;149;51.094;17.002;2023-07-31T07:12:33;21.20;72.60
324;DHT22;149;51.094;17.002;2023-07-31T07:15:00;21.10;72.10
324;DHT22;149;51.094;17.002;2023-07-31T07:17:28;21.10;73.60
324;DHT22;149;51.094;17.002;2023-07-31T07:19:57;21.30;71.70
324;DHT22;149;51.094;17.002;2023-07-31T07:22:25;21.40;69.30
324;DHT22;149;51.094;17.002;2023-07-31T07:24:53;21.60;69.00
324;DHT22;149;51.094;17.002;2023-07-31T07:27:20;21.70;70.20
324;DHT22;149;51.094;17.002;2023-07-31T07:29:47;21.90;69.20
324;DHT22;149;51.094;17.002;2023-07-31T07:32:16;22.10;68.20
324;DHT22;149;51.094;17.002;2023-07-31T07:34:44;22.20;67.90
324;DHT22;149;51.094;17.002;2023-07-31T07:37:11;22.70;67.40
324;DHT22;149;51.094;17.002;2023-07-31T07:39:38;22.80;64.70
324;DHT22;149;51.094;17.002;2023-07-31T07:42:05;22.70;65.10
324;DHT22;149;51.094;17.002;2023-07-31T07:44:33;22.80;64.40
324;DHT22;149;51.094;17.002;2023-07-31T07:47:00;22.90;62.80
324;DHT22;149;51.094;17.002;2023-07-31T07:49:26;23.60;62.20
324;DHT22;149;51.094;17.002;2023-07-31T07:51:54;24.30;60.70
324;DHT22;149;51.094;17.002;2023-07-31T07:54:20;25.70;57.30
324;DHT22;149;51.094;17.002;2023-07-31T07:56:48;26.30;55.10
324;DHT22;149;51.094;17.002;2023-07-31T07:59:15;26.60;53.50
324;DHT22;149;51.094;17.002;2023-07-31T08:01:41;26.70;54.50
324;DHT22;149;51.094;17.002;2023-07-31T08:04:09;27.10;53.20
324;DHT22;149;51.094;17.002;2023-07-31T08:06:35;27.70;51.80
324;DHT22;149;51.094;17.002;2023-07-31T08:09:03;28.30;50.70
324;DHT22;149;51.094;17.002;2023-07-31T08:11:33;28.80;46.90
324;DHT22;149;51.094;17.002;2023-07-31T08:14:00;27.70;48.70
324;DHT22;149;51.094;17.002;2023-07-31T08:16:27;27.30;50.20
324;DHT22;149;51.094;17.002;2023-07-31T08:18:54;28.10;51.70
324;DHT22;149;51.094;17.002;2023-07-31T08:21:21;29.20;48.80
324;DHT22;149;51.094;17.002;2023-07-31T08:23:48;29.50;49.10
324;DHT22;149;51.094;17.002;2023-07-31T08:26:19;30.30;43.40
324;DHT22;149;51.094;17.002;2023-07-31T08:28:46;30.30;47.20
324;DHT22;149;51.094;17.002;2023-07-31T08:31:13;30.60;44.20
324;DHT22;149;51.094;17.002;2023-07-31T08:33:40;29.90;43.00
324;DHT22;149;51.094;17.002;2023-07-31T08:36:07;28.70;48.10
324;DHT22;149;51.094;17.002;2023-07-31T08:38:34;28.60;51.20
324;DHT22;149;51.094;17.002;2023-07-31T08:41:05;28.80;49.90
324;DHT22;149;51.094;17.002;2023-07-31T08:43:32;28.00;47.70
324;DHT22;149;51.094;17.002;2023-07-31T08:46:00;27.30;52.50
324;DHT22;149;51.094;17.002;2023-07-31T08:48:29;26.80;51.00
324;DHT22;149;51.094;17.002;2023-07-31T08:50:57;26.00;52.30
324;DHT22;149;51.094;17.002;2023-07-31T08:53:24;25.50;52.90
324;DHT22;149;51.094;17.002;2023-07-31T08:55:52;25.20;56.90
324;DHT22;149;51.094;17.002;2023-07-31T08:58:21;25.00;55.30
324;DHT22;149;51.094;17.002;2023-07-31T09:00:48;24.50;57.20
324;DHT22;149;51.094;17.002;2023-07-31T09:03:22;24.20;58.80
324;DHT22;149;51.094;17.002;2023-07-31T09:05:50;24.00;58.70
324;DHT22;149;51.094;17.002;2023-07-31T09:08:21;23.80;58.00
324;DHT22;149;51.094;17.002;2023-07-31T09:10:49;23.60;57.80
324;DHT22;149;51.094;17.002;2023-07-31T09:13:17;23.70;58.10
324;DHT22;149;51.094;17.002;2023-07-31T09:15:45;23.40;58.30
324;DHT22;149;51.094;17.002;2023-07-31T09:18:13;23.60;59.80
324;DHT22;149;51.094;17.002;2023-07-31T09:20:44;24.00;57.00
324;DHT22;149;51.094;17.002;2023-07-31T09:23:12;24.00;55.50
324;DHT22;149;51.094;17.002;2023-07-31T09:25:43;23.90;56.50
324;DHT22;149;51.094;17.002;2023-07-31T09:28:11;23.60;56.80
324;DHT22;149;51.094;17.002;2023-07-31T09:30:50;23.40;57.10
324;DHT22;149;51.094;17.002;2023-07-31T09:33:20;23.50;57.30
324;DHT22;149;51.094;17.002;2023-07-31T09:35:47;23.30;57.70
324;DHT22;149;51.094;17.002;2023-07-31T09:38:15;23.10;58.30
324;DHT22;149;51.094;17.002;2023-07-31T09:40:44;23.10;57.60
324;DHT22;149;51.094;17.002;2023-07-31T09:43:13;23.20;58.30
324;DHT22;149;51.094;17.002;2023-07-31T09:45:42;22.90;58.80
324;DHT22;149;51.094;17.002;2023-07-31T09:48:11;22.90;58.80
324;DHT22;149;51.094;17.002;2023-07-31T09:50:40;22.90;58.50
324;DHT22;149;51.094;17.002;2023-07-31T09:53:08;23.00;58.30
324;DHT22;149;51.094;17.002;2023-07-31T09:55:36;22.90;58.70
324;DHT22;149;51.094;17.002;2023-07-31T09:58:05;23.00;58.10
324;DHT22;149;51.094;17.002;2023-07-31T10:00:33;23.00;58.30
324;DHT22;149;51.094;17.002;2023-07-31T10:03:04;23.20;59.80
324;DHT22;149;51.094;17.002;2023-07-31T10:05:36;23.20;57.60
324;DHT22;149;51.094;17.002;2023-07-31T10:08:06;22.80;59.20
324;DHT22;149;51.094;17.002;2023-07-31T10:10:36;22.80;59.50
324;DHT22;149;51.094;17.002;2023-07-31T10:13:04;22.50;60.00
324;DHT22;149;51.094;17.002;2023-07-31T10:15:31;22.80;60.40
324;DHT22;149;51.094;17.002;2023-07-31T10:18:01;22.50;60.20
324;DHT22;149;51.094;17.002;2023-07-31T10:20:29;22.60;60.50
324;DHT22;149;51.094;17.002;2023-07-31T10:22:56;23.00;60.80
324;DHT22;149;51.094;17.002;2023-07-31T10:25:23;23.00;59.40
324;DHT22;149;51.094;17.002;2023-07-31T10:27:52;22.90;60.40
324;DHT22;149;51.094;17.002;2023-07-31T10:30:23;22.80;59.20
324;DHT22;149;51.094;17.002;2023-07-31T10:32:52;22.70;60.40
324;DHT22;149;51.094;17.002;2023-07-31T10:35:20;22.90;59.90
324;DHT22;149;51.094;17.002;2023-07-31T10:37:49;23.10;59.00
324;DHT22;149;51.094;17.002;2023-07-31T10:45:32;23.40;58.70
324;DHT22;149;51.094;17.002;2023-07-31T10:48:12;23.40;57.80
324;DHT22;149;51.094;17.002;2023-07-31T10:50:50;23.20;58.00
324;DHT22;149;51.094;17.002;2023-07-31T10:53:31;23.10;59.20
324;DHT22;149;51.094;17.002;2023-07-31T10:56:02;22.80;59.40
324;DHT22;149;51.094;17.002;2023-07-31T10:58:31;22.70;59.90
324;DHT22;149;51.094;17.002;2023-07-31T11:01:07;22.60;59.80
324;DHT22;149;51.094;17.002;2023-07-31T11:03:42;22.90;60.20
324;DHT22;149;51.094;17.002;2023-07-31T11:06:14;23.20;60.70
324;DHT22;149;51.094;17.002;2023-07-31T11:08:48;23.40;60.40
324;DHT22;149;51.094;17.002;2023-07-31T11:11:19;23.40;58.60
324;DHT22;149;51.094;17.002;2023-07-31T11:13:53;23.50;57.60
324;DHT22;149;51.094;17.002;2023-07-31T11:16:22;23.60;59.20
324;DHT22;149;51.094;17.002;2023-07-31T11:18:49;23.70;58.60
324;DHT22;149;51.094;17.002;2023-07-31T11:21:20;24.30;56.20
324;DHT22;149;51.094;17.002;2023-07-31T11:23:50;24.70;55.00
324;DHT22;149;51.094;17.002;2023-07-31T11:26:17;25.00;54.30
324;DHT22;149;51.094;17.002;2023-07-31T11:28:47;25.30;53.80
324;DHT22;149;51.094;17.002;2023-07-31T11:31:15;25.00;53.60
324;DHT22;149;51.094;17.002;2023-07-31T11:33:42;25.00;53.20
324;DHT22;149;51.094;17.002;2023-07-31T11:36:19;24.90;53.80
324;DHT22;149;51.094;17.002;2023-07-31T11:38:47;24.90;54.00
324;DHT22;149;51.094;17.002;2023-07-31T11:41:16;24.90;55.00
324;DHT22;149;51.094;17.002;2023-07-31T11:43:46;24.90;53.10
324;DHT22;149;51.094;17.002;2023-07-31T11:46:14;24.70;53.90
324;DHT22;149;51.094;17.002;2023-07-31T11:48:42;24.60;54.40
324;DHT22;149;51.094;17.002;2023-07-31T11:51:10;24.80;54.30
324;DHT22;149;51.094;17.002;2023-07-31T11:53:45;24.90;54.50
324;DHT22;149;51.094;17.002;2023-07-31T11:56:16;25.20;54.20
324;DHT22;149;51.094;17.002;2023-07-31T11:58:46;25.40;53.40
324;DHT22;149;51.094;17.002;2023-07-31T12:01:15;26.00;51.80
324;DHT22;149;51.094;17.002;2023-07-31T12:03:44;26.30;51.00
324;DHT22;149;51.094;17.002;2023-07-31T12:06:11;26.60;50.40
324;DHT22;149;51.094;17.002;2023-07-31T12:08:40;26.30;50.70
324;DHT22;149;51.094;17.002;2023-07-31T12:11:09;26.10;51.30
324;DHT22;149;51.094;17.002;2023-07-31T12:13:44;25.80;51.30
324;DHT22;149;51.094;17.002;2023-07-31T12:16:11;26.10;51.50
324;DHT22;149;51.094;17.002;2023-07-31T12:18:39;25.80;51.70
324;DHT22;149;51.094;17.002;2023-07-31T12:21:07;26.10;50.90
324;DHT22;149;51.094;17.002;2023-07-31T12:23:36;26.40;51.90
324;DHT22;149;51.094;17.002;2023-07-31T12:26:12;26.20;51.10
324;DHT22;149;51.094;17.002;2023-07-31T12:28:47;25.80;51.70
324;DHT22;149;51.094;17.002;2023-07-31T12:31:20;25.90;51.30
324;DHT22;149;51.094;17.002;2023-07-31T12:33:50;26.30;50.50
324;DHT22;149;51.094;17.002;2023-07-31T12:36:19;26.20;50.80
324;DHT22;149;51.094;17.002;2023-07-31T12:38:47;26.20;50.80
324;DHT22;149;51.094;17.002;2023-07-31T12:41:15;26.60;51.30
324;DHT22;149;51.094;17.002;2023-07-31T12:43:43;26.40;50.60
324;DHT22;149;51.094;17.002;2023-07-31T12:46:11;26.10;50.10
324;DHT22;149;51.094;17.002;2023-07-31T12:48:38;26.20;51.40
324;DHT22;149;51.094;17.002;2023-07-31T12:51:06;26.40;49.80
324;DHT22;149;51.094;17.002;2023-07-31T12:53:35;26.40;50.80
324;DHT22;149;51.094;17.002;2023-07-31T12:56:03;26.00;51.20
324;DHT22;149;51.094;17.002;2023-07-31T12:58:30;25.60;52.20
324;DHT22;149;51.094;17.002;2023-07-31T13:00:57;24.90;54.50
324;DHT22;149;51.094;17.002;2023-07-31T13:03:24;24.70;53.80
324;DHT22;149;51.094;17.002;2023-07-31T13:05:52;24.80;53.80
324;DHT22;149;51.094;17.002;2023-07-31T13:08:19;25.10;53.60
324;DHT22;149;51.094;17.002;2023-07-31T13:10:46;25.50;53.10
324;DHT22;149;51.094;17.002;2023-07-31T13:13:13;25.60;51.70
324;DHT22;149;51.094;17.002;2023-07-31T13:15:40;25.60;53.40
324;DHT22;149;51.094;17.002;2023-07-31T13:18:07;25.80;52.60
324;DHT22;149;51.094;17.002;2023-07-31T13:20:34;25.90;52.10
324;DHT22;149;51.094;17.002;2023-07-31T13:23:01;25.80;52.70
324;DHT22;149;51.094;17.002;2023-07-31T13:25:28;25.70;53.60
324;DHT22;149;51.094;17.002;2023-07-31T13:27:55;25.80;52.80
324;DHT22;149;51.094;17.002;2023-07-31T13:30:23;25.80;52.20
324;DHT22;149;51.094;17.002;2023-07-31T13:32:50;25.90;52.20
324;DHT22;149;51.094;17.002;2023-07-31T13:35:17;25.80;51.90
324;DHT22;149;51.094;17.002;2023-07-31T13:37:44;25.70;51.70
324;DHT22;149;51.094;17.002;2023-07-31T13:40:11;25.80;52.40
324;DHT22;149;51.094;17.002;2023-07-31T13:42:38;25.80;52.30
324;DHT22;149;51.094;17.002;2023-07-31T13:45:05;25.80;53.00
324;DHT22;149;51.094;17.002;2023-07-31T13:47:33;25.90;52.10
324;DHT22;149;51.094;17.002;2023-07-31T13:50:01;25.80;52.30
324;DHT22;149;51.094;17.002;2023-07-31T13:52:29;25.70;52.60
324;DHT22;149;51.094;17.002;2023-07-31T13:54:56;25.70;54.20
324;DHT22;149;51.094;17.002;2023-07-31T13:57:23;25.70;52.30
324;DHT22;149;51.094;17.002;2023-07-31T13:59:50;25.70;53.30
324;DHT22;149;51.094;17.002;2023-07-31T14:02:17;25.40;52.60
324;DHT22;149;51.094;17.002;2023-07-31T14:04:44;25.30;53.00
324;DHT22;149;51.094;17.002;2023-07-31T14:07:11;25.30;54.60
324;DHT22;149;51.094;17.002;2023-07-31T14:09:39;25.30;53.70
324;DHT22;149;51.094;17.002;2023-07-31T14:12:06;25.40;52.60
324;DHT22;149;51.094;17.002;2023-07-31T14:14:33;25.40;53.60
324;DHT22;149;51.094;17.002;2023-07-31T14:17:01;25.40;53.10
324;DHT22;149;51.094;17.002;2023-07-31T14:19:28;25.70;53.20
324;DHT22;149;51.094;17.002;2023-07-31T14:21:58;25.80;51.20
324;DHT22;149;51.094;17.002;2023-07-31T14:24:37;25.80;52.30
324;DHT22;149;51.094;17.002;2023-07-31T14:27:04;26.00;52.50
324;DHT22;149;51.094;17.002;2023-07-31T14:29:31;25.90;51.20
324;DHT22;149;51.094;17.002;2023-07-31T14:31:58;25.60;51.20
324;DHT22;149;51.094;17.002;2023-07-31T14:34:27;25.30;52.40
324;DHT22;149;51.094;17.002;2023-07-31T14:36:53;24.90;53.10
324;DHT22;149;51.094;17.002;2023-07-31T14:39:20;24.80;52.70
324;DHT22;149;51.094;17.002;2023-07-31T14:41:47;24.70;53.70
324;DHT22;149;51.094;17.002;2023-07-31T14:44:14;24.50;53.80
324;DHT22;149;51.094;17.002;2023-07-31T14:46:41;24.40;53.30
324;DHT22;149;51.094;17.002;2023-07-31T14:49:09;24.20;53.20
324;DHT22;149;51.094;17.002;2023-07-31T14:51:36;24.30;53.80
324;DHT22;149;51.094;17.002;2023-07-31T14:54:03;24.10;54.70
324;DHT22;149;51.094;17.002;2023-07-31T14:56:31;24.10;55.00
324;DHT22;149;51.094;17.002;2023-07-31T14:58:58;24.00;56.00
324;DHT22;149;51.094;17.002;2023-07-31T15:01:25;23.90;56.20
324;DHT22;149;51.094;17.002;2023-07-31T15:03:52;23.80;56.30
324;DHT22;149;51.094;17.002;2023-07-31T15:06:19;24.20;56.70
324;DHT22;149;51.094;17.002;2023-07-31T15:08:46;24.40;55.70
324;DHT22;149;51.094;17.002;2023-07-31T15:11:13;25.00;55.30
324;DHT22;149;51.094;17.002;2023-07-31T15:13:43;25.20;54.50
324;DHT22;149;51.094;17.002;2023-07-31T15:16:10;25.10;53.90
324;DHT22;149;51.094;17.002;2023-07-31T15:18:37;24.90;54.20
324;DHT22;149;51.094;17.002;2023-07-31T15:21:04;24.90;52.30
324;DHT22;149;51.094;17.002;2023-07-31T15:23:32;24.90;52.40
324;DHT22;149;51.094;17.002;2023-07-31T15:25:59;24.60;52.20
324;DHT22;149;51.094;17.002;2023-07-31T15:28:26;24.90;52.20
324;DHT22;149;51.094;17.002;2023-07-31T15:30:53;24.70;52.20
324;DHT22;149;51.094;17.002;2023-07-31T15:33:21;24.80;51.80
324;DHT22;149;51.094;17.002;2023-07-31T15:35:48;24.80;52.30
324;DHT22;149;51.094;17.002;2023-07-31T15:38:15;24.80;52.70
324;DHT22;149;51.094;17.002;2023-07-31T15:40:43;24.90;52.30
324;DHT22;149;51.094;17.002;2023-07-31T15:43:09;24.90;52.00
324;DHT22;149;51.094;17.002;2023-07-31T15:45:37;24.80;52.10
324;DHT22;149;51.094;17.002;2023-07-31T15:48:04;24.90;52.20
324;DHT22;149;51.094;17.002;2023-07-31T15:50:31;24.70;53.30
324;DHT22;149;51.094;17.002;2023-07-31T15:52:58;24.60;52.70
324;DHT22;149;51.094;17.002;2023-07-31T15:55:26;24.70;52.50
324;DHT22;149;51.094;17.002;2023-07-31T15:57:53;24.80;52.60
324;DHT22;149;51.094;17.002;2023-07-31T16:00:20;24.70;52.10
324;DHT22;149;51.094;17.002;2023-07-31T16:02:48;24.60;52.00
324;DHT22;149;51.094;17.002;2023-07-31T16:05:15;24.40;52.80
324;DHT22;149;51.094;17.002;2023-07-31T16:07:42;24.40;52.50
324;DHT22;149;51.094;17.002;2023-07-31T16:10:09;24.20;53.00
324;DHT22;149;51.094;17.002;2023-07-31T16:12:35;24.10;53.70
324;DHT22;149;51.094;17.002;2023-07-31T16:15:03;24.10;53.90
324;DHT22;149;51.094;17.002;2023-07-31T16:17:30;23.90;54.30
324;DHT22;149;51.094;17.002;2023-07-31T16:19:58;23.80;54.60
324;DHT22;149;51.094;17.002;2023-07-31T16:22:25;23.60;55.20
324;DHT22;149;51.094;17.002;2023-07-31T16:24:52;23.80;55.10
324;DHT22;149;51.094;17.002;2023-07-31T16:27:19;23.90;54.70
324;DHT22;149;51.094;17.002;2023-07-31T16:29:50;24.00;54.70